Terminal Aerodrome Forecast
Issued by NWS

Home | Current Version | Previous Version | Text Only | Print | Product List | Glossary On
Versions: 1 2 3 4 5 6 7 8 9 10 11 12 13 14 15 16 17 18 19 20 21 22 23
000
FTUS43 KDTX 291120
TAFYIP
TAF
KYIP 291120Z 2912/3012 03006KT P6SM SCT070 BKN200
     FM291700 07010KT P6SM SCT050 BKN100 PROB30 2922/3002 4SM TSRA
      OVC030CB
     FM300200 04006KT P6SM VCSH SCT050 BKN100=

USA.gov is the U.S. government's official web portal to all federal, state and local government web resources and services.